createdAt,value
2023-02-28T00:03:43.900Z,101104.06
2023-02-28T00:08:45.672Z,101099.97
2023-02-28T00:13:48.683Z,101101.00
2023-02-28T00:18:51.415Z,101091.25
2023-02-28T00:23:53.068Z,101098.59
2023-02-28T00:28:54.741Z,101092.41
2023-02-28T00:33:57.959Z,101082.34
2023-02-28T00:38:59.567Z,101089.19
2023-02-28T00:44:03.309Z,101088.19
2023-02-28T00:49:07.471Z,101095.41
2023-02-28T00:54:10.979Z,101084.50
2023-02-28T00:59:16.903Z,101089.69
2023-02-28T01:04:20.291Z,101081.63
2023-02-28T01:09:21.934Z,101078.78
2023-02-28T01:14:23.551Z,101082.84
2023-02-28T01:19:25.889Z,101081.50
2023-02-28T01:24:27.549Z,101078.28
2023-02-28T01:29:29.168Z,101072.97
2023-02-28T01:34:30.821Z,101078.69
2023-02-28T01:39:32.465Z,101077.16
2023-02-28T01:45:01.107Z,101076.13
2023-02-28T01:50:08.585Z,101074.56
2023-02-28T01:55:12.204Z,101079.72
2023-02-28T02:00:20.680Z,101073.22
2023-02-28T02:05:28.177Z,101065.31
2023-02-28T02:10:37.374Z,101058.94
2023-02-28T02:16:13.815Z,101060.72
2023-02-28T02:21:36.668Z,101061.56
2023-02-28T02:27:09.746Z,101055.78
2023-02-28T02:32:39.133Z,101054.56
2023-02-28T02:37:58.262Z,101060.22
2023-02-28T02:43:07.985Z,101060.50
2023-02-28T02:48:14.165Z,101065.72
2023-02-28T02:53:20.056Z,101064.78
2023-02-28T02:58:28.223Z,101062.09
2023-02-28T03:09:58.522Z,101068.16
2023-02-28T03:15:25.712Z,101063.13
2023-02-28T03:20:55.787Z,101063.22
2023-02-28T03:26:05.245Z,101058.19
2023-02-28T03:31:18.912Z,101059.00
2023-02-28T03:36:24.058Z,101064.75
2023-02-28T03:41:37.161Z,101058.88
2023-02-28T03:46:44.867Z,101057.25
2023-02-28T03:51:48.316Z,101060.63
2023-02-28T03:56:56.508Z,101076.34
2023-02-28T04:01:59.691Z,101071.97
2023-02-28T04:07:09.353Z,101071.66
2023-02-28T04:12:11.069Z,101075.88
2023-02-28T04:17:12.671Z,101082.91
2023-02-28T04:22:14.729Z,101077.59
2023-02-28T04:27:16.857Z,101084.34
2023-02-28T04:32:18.746Z,101093.00
2023-02-28T04:37:20.630Z,101092.81
2023-02-28T04:42:22.324Z,101101.75
2023-02-28T04:47:23.921Z,101107.41
2023-02-28T04:52:25.547Z,101107.72
2023-02-28T04:57:27.153Z,101106.34
2023-02-28T05:02:28.880Z,101103.28
2023-02-28T05:07:30.592Z,101106.16
2023-02-28T05:12:32.189Z,101116.41
2023-02-28T05:17:33.800Z,101124.91
2023-02-28T05:22:35.464Z,101123.09
2023-02-28T05:27:37.111Z,101116.38
2023-02-28T05:32:39.953Z,101109.13
2023-02-28T05:37:41.654Z,101120.88
2023-02-28T05:42:43.325Z,101115.13
2023-02-28T05:47:44.980Z,101122.41
2023-02-28T05:52:51.295Z,101127.47
2023-02-28T05:57:52.922Z,101126.78
2023-02-28T06:02:57.317Z,101133.84
2023-02-28T06:07:58.936Z,101140.97
2023-02-28T06:13:03.485Z,101139.06
2023-02-28T06:18:05.389Z,101147.38
2023-02-28T06:23:06.993Z,101143.97
2023-02-28T06:28:08.646Z,101163.06
2023-02-28T06:33:10.282Z,101158.22
2023-02-28T06:38:11.931Z,101176.94
2023-02-28T06:43:14.500Z,101183.06
2023-02-28T06:48:16.131Z,101186.72
2023-02-28T06:53:17.785Z,101193.34
2023-02-28T06:58:20.028Z,101195.88
2023-02-28T07:03:21.763Z,101204.72
2023-02-28T07:08:24.711Z,101208.22
2023-02-28T07:13:26.405Z,101213.84
2023-02-28T07:18:28.852Z,101218.66
2023-02-28T07:23:30.801Z,101214.28
2023-02-28T07:28:32.436Z,101216.25
2023-02-28T07:33:35.103Z,101220.78
2023-02-28T07:38:38.444Z,101220.88
2023-02-28T07:43:40.124Z,101206.47
2023-02-28T07:48:42.249Z,101209.28
2023-02-28T07:53:43.937Z,101215.81
2023-02-28T07:58:45.581Z,101220.28
2023-02-28T08:03:47.251Z,101213.06
2023-02-28T08:08:49.841Z,101212.78
2023-02-28T08:13:51.878Z,101212.34
2023-02-28T08:18:54.099Z,101211.72
2023-02-28T08:23:57.808Z,101208.38
2023-02-28T08:29:01.434Z,101209.13
2023-02-28T08:34:21.410Z,101215.66
2023-02-28T08:39:23.042Z,101217.97
2023-02-28T08:44:24.655Z,101206.91
2023-02-28T08:49:26.307Z,101224.28
2023-02-28T08:54:31.699Z,101221.97
2023-02-28T08:59:33.684Z,101218.53
2023-02-28T09:04:35.328Z,101206.63
2023-02-28T09:09:36.935Z,101205.94
2023-02-28T09:14:38.514Z,101212.66
2023-02-28T09:19:40.423Z,101218.38
2023-02-28T09:24:42.309Z,101215.88
2023-02-28T09:29:44.025Z,101207.47
2023-02-28T09:34:45.645Z,101195.31
2023-02-28T09:39:47.263Z,101190.13
2023-02-28T09:44:51.378Z,101195.91
2023-02-28T09:49:53.653Z,101208.63
2023-02-28T09:54:55.938Z,101205.44
2023-02-28T10:00:45.007Z,101197.16
2023-02-28T10:05:55.549Z,101195.09
2023-02-28T10:11:05.424Z,101195.78
2023-02-28T10:16:21.158Z,101184.00
2023-02-28T10:21:29.375Z,101197.81
2023-02-28T10:26:33.900Z,101195.03
2023-02-28T10:31:36.125Z,101200.59
2023-02-28T10:36:37.812Z,101200.13
2023-02-28T10:41:43.710Z,101200.25
2023-02-28T10:46:46.484Z,101191.25
2023-02-28T10:51:52.630Z,101182.22
2023-02-28T10:57:18.776Z,101188.75
2023-02-28T11:07:53.001Z,101173.69
2023-02-28T11:13:00.576Z,101174.91
2023-02-28T11:18:24.484Z,101159.78
2023-02-28T11:23:29.954Z,101162.19
2023-02-28T11:28:38.032Z,101160.66
2023-02-28T11:33:55.423Z,101164.84
2023-02-28T11:39:05.572Z,101154.88
2023-02-28T11:44:37.910Z,101153.22
2023-02-28T11:50:07.040Z,101142.53
2023-02-28T11:55:32.847Z,101139.03
2023-02-28T12:00:59.754Z,101134.75
2023-02-28T12:06:18.734Z,101128.03
2023-02-28T12:11:41.879Z,101120.81
2023-02-28T12:17:08.289Z,101120.22
2023-02-28T12:22:20.235Z,101117.53
2023-02-28T12:27:27.805Z,101127.22
2023-02-28T12:32:47.980Z,101119.50
2023-02-28T12:38:03.076Z,101121.19
2023-02-28T12:43:08.612Z,101111.00
2023-02-28T12:48:15.744Z,101110.06
2023-02-28T12:53:47.770Z,101111.28
2023-02-28T12:58:55.518Z,101106.22
2023-02-28T13:04:48.610Z,101100.94
2023-02-28T13:10:01.789Z,101107.78
2023-02-28T13:15:16.124Z,101106.50
2023-02-28T13:20:24.481Z,101093.25
2023-02-28T13:25:26.041Z,101093.44
2023-02-28T13:31:00.650Z,101099.28
2023-02-28T13:36:15.354Z,101091.84
2023-02-28T13:41:32.473Z,101093.00
2023-02-28T13:46:58.146Z,101096.25
2023-02-28T13:52:09.698Z,101085.19
2023-02-28T13:57:50.294Z,101077.75
2023-02-28T14:03:04.437Z,101069.97
2023-02-28T14:08:24.015Z,101074.50
2023-02-28T14:13:28.683Z,101074.53
2023-02-28T14:18:36.379Z,101070.13
2023-02-28T14:23:56.773Z,101053.31
2023-02-28T14:29:04.855Z,101057.16
2023-02-28T14:34:32.920Z,101055.00
2023-02-28T14:39:35.530Z,101056.31
2023-02-28T14:44:37.323Z,101055.34
2023-02-28T14:49:46.631Z,101048.91
2023-02-28T14:54:54.884Z,101049.19
2023-02-28T15:00:13.225Z,101064.28
2023-02-28T15:05:17.641Z,101068.88
2023-02-28T15:10:24.195Z,101063.84
2023-02-28T15:16:02.051Z,101065.41
2023-02-28T15:21:08.775Z,101065.06
2023-02-28T15:26:18.161Z,101058.09
2023-02-28T15:31:24.600Z,101063.34
2023-02-28T15:36:31.027Z,101062.47
2023-02-28T15:41:41.674Z,101068.94
2023-02-28T15:46:54.516Z,101064.72
2023-02-28T15:52:00.362Z,101073.16
2023-02-28T15:57:09.527Z,101072.81
2023-02-28T16:02:11.219Z,101070.59
2023-02-28T16:07:14.062Z,101071.53
2023-02-28T16:12:15.710Z,101072.50
2023-02-28T16:17:29.358Z,101069.06
2023-02-28T16:22:31.073Z,101069.91
2023-02-28T16:27:36.546Z,101071.66
2023-02-28T16:32:38.214Z,101069.78
2023-02-28T16:37:39.876Z,101072.63
2023-02-28T16:42:42.034Z,101070.63
2023-02-28T16:47:43.702Z,101077.50
2023-02-28T16:52:45.511Z,101072.53
2023-02-28T16:57:56.194Z,101083.06
2023-02-28T17:02:58.495Z,101077.78
2023-02-28T17:08:00.203Z,101089.31
2023-02-28T17:13:14.153Z,101090.78
2023-02-28T17:18:19.944Z,101089.72
2023-02-28T17:23:21.568Z,101090.84
2023-02-28T17:28:23.211Z,101094.16
2023-02-28T17:33:24.927Z,101094.25
2023-02-28T17:38:26.547Z,101095.41
2023-02-28T17:43:28.353Z,101094.66
2023-02-28T17:48:31.389Z,101089.75
2023-02-28T17:53:33.607Z,101088.81
2023-02-28T17:58:35.259Z,101086.84
2023-02-28T18:03:36.918Z,101086.91
2023-02-28T18:08:38.549Z,101066.59
2023-02-28T18:13:40.163Z,101070.56
2023-02-28T18:18:42.344Z,101071.72
2023-02-28T18:23:52.087Z,101081.00
2023-02-28T18:28:53.671Z,101082.13
2023-02-28T18:33:55.283Z,101079.44
2023-02-28T18:38:56.896Z,101080.88
2023-02-28T18:44:07.731Z,101083.06
2023-02-28T18:49:15.630Z,101079.47
2023-02-28T18:54:17.702Z,101083.97
2023-02-28T18:59:19.311Z,101085.84
2023-02-28T19:04:21.033Z,101075.13
2023-02-28T19:09:22.861Z,101076.25
2023-02-28T19:14:24.511Z,101083.91
2023-02-28T19:19:26.209Z,101079.47
2023-02-28T19:24:27.811Z,101093.38
2023-02-28T19:29:29.411Z,101092.59
2023-02-28T19:34:31.047Z,101096.91
2023-02-28T19:39:41.125Z,101081.66
2023-02-28T19:44:43.241Z,101082.34
2023-02-28T19:49:44.906Z,101080.56
2023-02-28T19:54:46.509Z,101086.75
2023-02-28T19:59:48.308Z,101092.03
2023-02-28T20:04:51.125Z,101097.50
2023-02-28T20:09:52.989Z,101103.03
2023-02-28T20:14:58.202Z,101102.38
2023-02-28T20:19:59.903Z,101105.03
2023-02-28T20:25:01.546Z,101107.47
2023-02-28T20:30:04.299Z,101102.72
2023-02-28T20:35:08.671Z,101107.41
2023-02-28T20:40:10.959Z,101107.28
2023-02-28T20:45:12.600Z,101107.44
2023-02-28T20:50:14.206Z,101110.84
2023-02-28T20:55:15.917Z,101102.38
2023-02-28T21:00:20.605Z,101111.22
2023-02-28T21:05:22.223Z,101102.53
2023-02-28T21:10:23.832Z,101115.97
2023-02-28T21:15:25.927Z,101102.78
2023-02-28T21:20:28.127Z,101101.56
2023-02-28T21:25:29.743Z,101122.78
2023-02-28T21:30:31.433Z,101106.97
2023-02-28T21:35:33.084Z,101110.06
2023-02-28T21:40:34.771Z,101114.91
2023-02-28T21:45:36.456Z,101119.94
2023-02-28T21:50:38.072Z,101121.47
2023-02-28T21:55:39.710Z,101120.00
2023-02-28T22:00:46.030Z,101120.06
2023-02-28T22:05:47.619Z,101112.91
2023-02-28T22:10:49.230Z,101106.16
2023-02-28T22:15:50.850Z,101101.69
2023-02-28T22:20:55.905Z,101108.66
2023-02-28T22:26:00.823Z,101116.56
2023-02-28T22:31:13.341Z,101108.88
2023-02-28T22:36:16.709Z,101105.06
2023-02-28T22:41:20.514Z,101108.41
2023-02-28T22:46:24.151Z,101106.16
2023-02-28T22:51:27.102Z,101121.03
2023-02-28T22:56:30.590Z,101118.56
2023-02-28T23:01:34.500Z,101124.59
2023-02-28T23:06:42.047Z,101115.59
2023-02-28T23:11:47.427Z,101125.28
2023-02-28T23:16:51.704Z,101119.47
2023-02-28T23:21:53.903Z,101120.50
2023-02-28T23:26:58.686Z,101123.22
2023-02-28T23:32:00.449Z,101124.81
2023-02-28T23:37:02.708Z,101118.91
2023-02-28T23:42:04.337Z,101126.84
2023-02-28T23:47:06.476Z,101130.41
2023-02-28T23:52:08.257Z,101139.50
2023-02-28T23:57:09.919Z,101127.38
